sensor_id;sensor_type;location;lat;lon;timestamp;temperature;humidity
2897;DHT22;1458;49.728;9.228;2023-05-09T00:00:36;13.60;99.90
2897;DHT22;1458;49.728;9.228;2023-05-09T00:03:04;13.60;99.90
2897;DHT22;1458;49.728;9.228;2023-05-09T00:05:31;13.60;99.90
2897;DHT22;1458;49.728;9.228;2023-05-09T00:07:59;13.60;99.90
2897;DHT22;1458;49.728;9.228;2023-05-09T00:10:26;13.60;99.90
2897;DHT22;1458;49.728;9.228;2023-05-09T00:12:54;13.60;99.90
2897;DHT22;1458;49.728;9.228;2023-05-09T00:15:21;13.60;99.90
2897;DHT22;1458;49.728;9.228;2023-05-09T00:17:51;13.60;99.90
2897;DHT22;1458;49.728;9.228;2023-05-09T00:20:19;13.60;99.90
2897;DHT22;1458;49.728;9.228;2023-05-09T00:22:46;13.70;99.90
2897;DHT22;1458;49.728;9.228;2023-05-09T00:25:14;13.70;99.90
2897;DHT22;1458;49.728;9.228;2023-05-09T00:27:41;13.80;99.90
2897;DHT22;1458;49.728;9.228;2023-05-09T00:30:09;13.90;99.90
2897;DHT22;1458;49.728;9.228;2023-05-09T00:32:37;13.90;99.90
2897;DHT22;1458;49.728;9.228;2023-05-09T00:35:08;13.90;99.90
2897;DHT22;1458;49.728;9.228;2023-05-09T00:37:35;13.90;99.90
2897;DHT22;1458;49.728;9.228;2023-05-09T00:40:04;13.80;99.90
2897;DHT22;1458;49.728;9.228;2023-05-09T00:42:34;13.80;99.90
2897;DHT22;1458;49.728;9.228;2023-05-09T00:45:01;13.80;99.90
2897;DHT22;1458;49.728;9.228;2023-05-09T00:47:29;13.90;99.90
2897;DHT22;1458;49.728;9.228;2023-05-09T00:49:57;13.90;99.90
2897;DHT22;1458;49.728;9.228;2023-05-09T00:52:26;13.80;99.90
2897;DHT22;1458;49.728;9.228;2023-05-09T00:54:54;13.80;99.90
2897;DHT22;1458;49.728;9.228;2023-05-09T00:57:22;13.80;99.90
2897;DHT22;1458;49.728;9.228;2023-05-09T00:59:49;13.80;99.90
2897;DHT22;1458;49.728;9.228;2023-05-09T01:02:17;13.70;99.90
2897;DHT22;1458;49.728;9.228;2023-05-09T01:04:45;13.80;99.90
2897;DHT22;1458;49.728;9.228;2023-05-09T01:07:18;13.80;99.90
2897;DHT22;1458;49.728;9.228;2023-05-09T01:09:58;13.80;99.90
2897;DHT22;1458;49.728;9.228;2023-05-09T01:12:34;13.80;99.90
2897;DHT22;1458;49.728;9.228;2023-05-09T01:15:12;13.80;99.90
2897;DHT22;1458;49.728;9.228;2023-05-09T01:17:50;13.80;99.90
2897;DHT22;1458;49.728;9.228;2023-05-09T01:20:25;13.80;99.90
2897;DHT22;1458;49.728;9.228;2023-05-09T01:23:11;13.90;99.90
2897;DHT22;1458;49.728;9.228;2023-05-09T01:26:04;13.90;99.90
2897;DHT22;1458;49.728;9.228;2023-05-09T01:28:38;13.90;99.90
2897;DHT22;1458;49.728;9.228;2023-05-09T01:31:23;13.90;99.90
2897;DHT22;1458;49.728;9.228;2023-05-09T01:33:54;13.90;99.90
2897;DHT22;1458;49.728;9.228;2023-05-09T01:36:26;13.90;99.90
2897;DHT22;1458;49.728;9.228;2023-05-09T01:38:58;13.90;99.90
2897;DHT22;1458;49.728;9.228;2023-05-09T01:41:30;13.90;99.90
2897;DHT22;1458;49.728;9.228;2023-05-09T01:44:03;13.90;99.90
2897;DHT22;1458;49.728;9.228;2023-05-09T01:46:34;13.90;99.90
2897;DHT22;1458;49.728;9.228;2023-05-09T01:49:03;14.00;99.90
2897;DHT22;1458;49.728;9.228;2023-05-09T01:51:32;14.00;99.90
2897;DHT22;1458;49.728;9.228;2023-05-09T01:54:01;13.90;99.90
2897;DHT22;1458;49.728;9.228;2023-05-09T01:56:30;13.80;99.90
2897;DHT22;1458;49.728;9.228;2023-05-09T01:59:00;13.80;99.90
2897;DHT22;1458;49.728;9.228;2023-05-09T02:01:29;13.90;99.90
2897;DHT22;1458;49.728;9.228;2023-05-09T02:03:59;13.90;99.90
2897;DHT22;1458;49.728;9.228;2023-05-09T02:06:27;13.90;99.90
2897;DHT22;1458;49.728;9.228;2023-05-09T02:08:57;13.90;99.90
2897;DHT22;1458;49.728;9.228;2023-05-09T02:11:25;13.80;99.90
2897;DHT22;1458;49.728;9.228;2023-05-09T02:13:52;13.80;99.90
2897;DHT22;1458;49.728;9.228;2023-05-09T02:16:20;13.80;99.90
2897;DHT22;1458;49.728;9.228;2023-05-09T02:18:47;13.80;99.90
2897;DHT22;1458;49.728;9.228;2023-05-09T02:21:16;13.80;99.90
2897;DHT22;1458;49.728;9.228;2023-05-09T02:23:44;13.90;99.90
2897;DHT22;1458;49.728;9.228;2023-05-09T02:26:13;13.90;99.90
2897;DHT22;1458;49.728;9.228;2023-05-09T02:28:42;13.80;99.90
2897;DHT22;1458;49.728;9.228;2023-05-09T02:31:11;13.80;99.90
2897;DHT22;1458;49.728;9.228;2023-05-09T02:33:40;13.70;99.90
2897;DHT22;1458;49.728;9.228;2023-05-09T02:36:09;13.80;99.90
2897;DHT22;1458;49.728;9.228;2023-05-09T02:38:39;13.80;99.90
2897;DHT22;1458;49.728;9.228;2023-05-09T02:41:11;13.90;99.90
2897;DHT22;1458;49.728;9.228;2023-05-09T02:43:39;13.90;99.90
2897;DHT22;1458;49.728;9.228;2023-05-09T02:46:07;14.00;99.90
2897;DHT22;1458;49.728;9.228;2023-05-09T02:48:34;13.90;99.90
2897;DHT22;1458;49.728;9.228;2023-05-09T02:51:02;13.90;99.90
2897;DHT22;1458;49.728;9.228;2023-05-09T02:53:30;13.90;99.90
2897;DHT22;1458;49.728;9.228;2023-05-09T02:55:59;13.80;99.90
2897;DHT22;1458;49.728;9.228;2023-05-09T02:58:26;13.80;99.90
2897;DHT22;1458;49.728;9.228;2023-05-09T03:00:53;13.80;99.90
2897;DHT22;1458;49.728;9.228;2023-05-09T03:03:22;13.80;99.90
2897;DHT22;1458;49.728;9.228;2023-05-09T03:05:50;13.80;99.90
2897;DHT22;1458;49.728;9.228;2023-05-09T03:08:18;13.80;99.90
2897;DHT22;1458;49.728;9.228;2023-05-09T03:10:46;13.80;99.90
2897;DHT22;1458;49.728;9.228;2023-05-09T03:13:15;13.80;99.90
2897;DHT22;1458;49.728;9.228;2023-05-09T03:15:43;13.70;99.90
2897;DHT22;1458;49.728;9.228;2023-05-09T03:18:11;13.70;99.90
2897;DHT22;1458;49.728;9.228;2023-05-09T03:20:39;13.60;99.90
2897;DHT22;1458;49.728;9.228;2023-05-09T03:23:06;13.60;99.90
2897;DHT22;1458;49.728;9.228;2023-05-09T03:25:34;13.50;99.90
2897;DHT22;1458;49.728;9.228;2023-05-09T03:28:02;13.50;99.90
2897;DHT22;1458;49.728;9.228;2023-05-09T03:30:31;13.40;99.90
2897;DHT22;1458;49.728;9.228;2023-05-09T03:32:59;13.30;99.90
2897;DHT22;1458;49.728;9.228;2023-05-09T03:35:27;13.20;99.90
2897;DHT22;1458;49.728;9.228;2023-05-09T03:37:54;13.20;99.90
2897;DHT22;1458;49.728;9.228;2023-05-09T03:40:22;13.10;99.90
2897;DHT22;1458;49.728;9.228;2023-05-09T03:42:58;13.10;99.90
2897;DHT22;1458;49.728;9.228;2023-05-09T03:45:25;13.10;99.90
2897;DHT22;1458;49.728;9.228;2023-05-09T03:47:54;13.10;99.90
2897;DHT22;1458;49.728;9.228;2023-05-09T03:50:22;13.00;99.90
2897;DHT22;1458;49.728;9.228;2023-05-09T03:52:51;13.00;99.90
2897;DHT22;1458;49.728;9.228;2023-05-09T03:55:20;12.90;99.90
2897;DHT22;1458;49.728;9.228;2023-05-09T03:57:48;12.80;99.90
2897;DHT22;1458;49.728;9.228;2023-05-09T04:00:17;12.60;99.90
2897;DHT22;1458;49.728;9.228;2023-05-09T04:02:57;12.40;99.90
2897;DHT22;1458;49.728;9.228;2023-05-09T04:05:31;12.50;99.90
2897;DHT22;1458;49.728;9.228;2023-05-09T04:08:01;12.50;99.90
2897;DHT22;1458;49.728;9.228;2023-05-09T04:10:30;12.60;99.90
2897;DHT22;1458;49.728;9.228;2023-05-09T04:12:58;12.70;99.90
2897;DHT22;1458;49.728;9.228;2023-05-09T04:15:26;12.70;99.90
2897;DHT22;1458;49.728;9.228;2023-05-09T04:17:56;12.70;99.90
2897;DHT22;1458;49.728;9.228;2023-05-09T04:20:24;12.70;99.90
2897;DHT22;1458;49.728;9.228;2023-05-09T04:22:52;12.90;99.90
2897;DHT22;1458;49.728;9.228;2023-05-09T04:25:19;13.10;99.90
2897;DHT22;1458;49.728;9.228;2023-05-09T04:27:47;13.10;99.90
2897;DHT22;1458;49.728;9.228;2023-05-09T04:30:15;13.30;99.90
2897;DHT22;1458;49.728;9.228;2023-05-09T04:32:43;13.30;99.90
2897;DHT22;1458;49.728;9.228;2023-05-09T04:35:12;13.40;99.90
2897;DHT22;1458;49.728;9.228;2023-05-09T04:37:44;13.40;99.90
2897;DHT22;1458;49.728;9.228;2023-05-09T04:40:13;13.40;99.90
2897;DHT22;1458;49.728;9.228;2023-05-09T04:42:50;13.40;99.90
2897;DHT22;1458;49.728;9.228;2023-05-09T04:45:20;13.50;99.90
2897;DHT22;1458;49.728;9.228;2023-05-09T04:47:48;13.50;99.90
2897;DHT22;1458;49.728;9.228;2023-05-09T04:50:17;13.60;99.90
2897;DHT22;1458;49.728;9.228;2023-05-09T04:52:44;13.70;99.90
2897;DHT22;1458;49.728;9.228;2023-05-09T04:55:11;13.80;99.90
2897;DHT22;1458;49.728;9.228;2023-05-09T04:57:43;13.90;99.90
2897;DHT22;1458;49.728;9.228;2023-05-09T05:00:12;14.00;99.90
2897;DHT22;1458;49.728;9.228;2023-05-09T05:02:41;14.00;99.90
2897;DHT22;1458;49.728;9.228;2023-05-09T05:05:09;14.10;99.90
2897;DHT22;1458;49.728;9.228;2023-05-09T05:07:39;14.20;99.90
2897;DHT22;1458;49.728;9.228;2023-05-09T05:10:09;14.40;99.90
2897;DHT22;1458;49.728;9.228;2023-05-09T05:12:39;14.60;99.90
2897;DHT22;1458;49.728;9.228;2023-05-09T05:15:10;14.60;99.90
2897;DHT22;1458;49.728;9.228;2023-05-09T05:17:39;14.60;99.90
2897;DHT22;1458;49.728;9.228;2023-05-09T05:20:08;14.70;99.90
2897;DHT22;1458;49.728;9.228;2023-05-09T05:22:41;14.70;99.90
2897;DHT22;1458;49.728;9.228;2023-05-09T05:25:10;14.70;99.90
2897;DHT22;1458;49.728;9.228;2023-05-09T05:27:39;14.70;99.90
2897;DHT22;1458;49.728;9.228;2023-05-09T05:30:10;14.70;99.90
2897;DHT22;1458;49.728;9.228;2023-05-09T05:32:40;14.60;99.90
2897;DHT22;1458;49.728;9.228;2023-05-09T05:35:09;14.60;99.90
2897;DHT22;1458;49.728;9.228;2023-05-09T05:37:38;14.60;99.90
2897;DHT22;1458;49.728;9.228;2023-05-09T05:40:08;14.60;99.90
2897;DHT22;1458;49.728;9.228;2023-05-09T05:42:38;14.80;99.90
2897;DHT22;1458;49.728;9.228;2023-05-09T05:45:07;15.10;99.90
2897;DHT22;1458;49.728;9.228;2023-05-09T05:47:38;15.40;99.90
2897;DHT22;1458;49.728;9.228;2023-05-09T05:50:06;15.80;99.90
2897;DHT22;1458;49.728;9.228;2023-05-09T05:52:37;16.10;99.90
2897;DHT22;1458;49.728;9.228;2023-05-09T05:55:07;16.40;99.90
2897;DHT22;1458;49.728;9.228;2023-05-09T05:57:35;16.50;99.90
2897;DHT22;1458;49.728;9.228;2023-05-09T06:00:06;16.80;99.90
2897;DHT22;1458;49.728;9.228;2023-05-09T06:02:41;17.00;99.90
2897;DHT22;1458;49.728;9.228;2023-05-09T06:05:13;17.00;99.90
2897;DHT22;1458;49.728;9.228;2023-05-09T06:07:40;16.80;99.90
2897;DHT22;1458;49.728;9.228;2023-05-09T06:10:10;16.70;99.90
2897;DHT22;1458;49.728;9.228;2023-05-09T06:12:37;16.70;99.90
2897;DHT22;1458;49.728;9.228;2023-05-09T06:15:06;16.80;99.90
2897;DHT22;1458;49.728;9.228;2023-05-09T06:17:37;16.70;99.90
2897;DHT22;1458;49.728;9.228;2023-05-09T06:20:06;16.60;99.90
2897;DHT22;1458;49.728;9.228;2023-05-09T06:22:34;16.60;99.90
2897;DHT22;1458;49.728;9.228;2023-05-09T06:25:01;16.70;99.90
2897;DHT22;1458;49.728;9.228;2023-05-09T06:27:30;16.70;99.90
2897;DHT22;1458;49.728;9.228;2023-05-09T06:29:58;16.80;99.90
2897;DHT22;1458;49.728;9.228;2023-05-09T06:32:25;17.00;99.90
2897;DHT22;1458;49.728;9.228;2023-05-09T06:34:53;17.20;99.90
2897;DHT22;1458;49.728;9.228;2023-05-09T06:37:20;17.30;99.90
2897;DHT22;1458;49.728;9.228;2023-05-09T06:39:48;17.50;99.90
2897;DHT22;1458;49.728;9.228;2023-05-09T06:42:16;17.60;99.90
2897;DHT22;1458;49.728;9.228;2023-05-09T06:44:45;17.70;99.90
2897;DHT22;1458;49.728;9.228;2023-05-09T06:47:12;17.70;99.90
2897;DHT22;1458;49.728;9.228;2023-05-09T06:49:40;18.00;99.90
2897;DHT22;1458;49.728;9.228;2023-05-09T06:52:07;17.90;99.90
2897;DHT22;1458;49.728;9.228;2023-05-09T06:54:35;18.00;99.90
2897;DHT22;1458;49.728;9.228;2023-05-09T06:57:03;18.00;99.90
2897;DHT22;1458;49.728;9.228;2023-05-09T06:59:31;18.00;99.90
2897;DHT22;1458;49.728;9.228;2023-05-09T07:01:59;17.90;99.90
2897;DHT22;1458;49.728;9.228;2023-05-09T07:04:27;18.00;99.90
2897;DHT22;1458;49.728;9.228;2023-05-09T07:06:54;17.90;99.90
2897;DHT22;1458;49.728;9.228;2023-05-09T07:09:22;18.00;99.90
2897;DHT22;1458;49.728;9.228;2023-05-09T07:11:52;17.90;99.90
2897;DHT22;1458;49.728;9.228;2023-05-09T07:14:20;18.10;99.90
2897;DHT22;1458;49.728;9.228;2023-05-09T07:16:47;18.10;99.90
2897;DHT22;1458;49.728;9.228;2023-05-09T07:19:16;18.20;99.90
2897;DHT22;1458;49.728;9.228;2023-05-09T07:21:43;18.30;99.90
2897;DHT22;1458;49.728;9.228;2023-05-09T07:24:11;18.30;99.90
2897;DHT22;1458;49.728;9.228;2023-05-09T07:26:38;18.50;99.90
2897;DHT22;1458;49.728;9.228;2023-05-09T07:29:06;18.20;99.90
2897;DHT22;1458;49.728;9.228;2023-05-09T07:31:34;18.10;99.90
2897;DHT22;1458;49.728;9.228;2023-05-09T07:34:01;18.00;99.90
2897;DHT22;1458;49.728;9.228;2023-05-09T07:36:30;18.10;99.90
2897;DHT22;1458;49.728;9.228;2023-05-09T07:38:57;17.90;99.90
2897;DHT22;1458;49.728;9.228;2023-05-09T07:41:25;17.90;99.90
2897;DHT22;1458;49.728;9.228;2023-05-09T07:43:53;17.70;99.90
2897;DHT22;1458;49.728;9.228;2023-05-09T07:46:20;18.00;99.90
2897;DHT22;1458;49.728;9.228;2023-05-09T07:48:48;18.30;99.90
2897;DHT22;1458;49.728;9.228;2023-05-09T07:51:15;18.40;99.90
2897;DHT22;1458;49.728;9.228;2023-05-09T07:53:44;18.30;99.90
2897;DHT22;1458;49.728;9.228;2023-05-09T07:56:11;18.40;99.90
2897;DHT22;1458;49.728;9.228;2023-05-09T07:58:39;18.70;99.90
2897;DHT22;1458;49.728;9.228;2023-05-09T08:01:06;18.80;99.90
2897;DHT22;1458;49.728;9.228;2023-05-09T08:03:34;19.00;99.90
2897;DHT22;1458;49.728;9.228;2023-05-09T08:06:01;19.40;99.90
2897;DHT22;1458;49.728;9.228;2023-05-09T08:08:29;19.80;99.90
2897;DHT22;1458;49.728;9.228;2023-05-09T08:10:58;19.90;99.90
2897;DHT22;1458;49.728;9.228;2023-05-09T08:13:26;19.90;97.20
2897;DHT22;1458;49.728;9.228;2023-05-09T08:15:53;19.70;97.70
2897;DHT22;1458;49.728;9.228;2023-05-09T08:18:21;19.90;97.70
2897;DHT22;1458;49.728;9.228;2023-05-09T08:20:48;19.90;96.30
2897;DHT22;1458;49.728;9.228;2023-05-09T08:23:16;19.80;95.10
2897;DHT22;1458;49.728;9.228;2023-05-09T08:25:43;19.60;94.00
2897;DHT22;1458;49.728;9.228;2023-05-09T08:28:12;19.70;93.60
2897;DHT22;1458;49.728;9.228;2023-05-09T08:30:40;19.80;95.70
2897;DHT22;1458;49.728;9.228;2023-05-09T08:33:07;20.10;92.90
2897;DHT22;1458;49.728;9.228;2023-05-09T08:35:35;20.20;94.10
2897;DHT22;1458;49.728;9.228;2023-05-09T08:38:02;20.00;92.40
2897;DHT22;1458;49.728;9.228;2023-05-09T08:40:34;20.00;92.10
2897;DHT22;1458;49.728;9.228;2023-05-09T08:43:03;19.90;91.80
2897;DHT22;1458;49.728;9.228;2023-05-09T08:45:42;20.00;92.90
2897;DHT22;1458;49.728;9.228;2023-05-09T08:48:14;20.30;91.20
2897;DHT22;1458;49.728;9.228;2023-05-09T08:50:43;20.40;90.10
2897;DHT22;1458;49.728;9.228;2023-05-09T08:53:10;19.90;90.70
2897;DHT22;1458;49.728;9.228;2023-05-09T08:55:38;20.10;90.80
2897;DHT22;1458;49.728;9.228;2023-05-09T08:58:07;20.20;92.60
2897;DHT22;1458;49.728;9.228;2023-05-09T09:00:37;20.00;91.20
2897;DHT22;1458;49.728;9.228;2023-05-09T09:03:05;20.00;92.70
2897;DHT22;1458;49.728;9.228;2023-05-09T09:05:35;20.10;92.70
2897;DHT22;1458;49.728;9.228;2023-05-09T09:08:05;20.00;93.10
2897;DHT22;1458;49.728;9.228;2023-05-09T09:10:34;20.10;94.30
2897;DHT22;1458;49.728;9.228;2023-05-09T09:13:02;20.20;94.20
2897;DHT22;1458;49.728;9.228;2023-05-09T09:15:34;20.40;93.50
2897;DHT22;1458;49.728;9.228;2023-05-09T09:18:06;20.50;92.20
2897;DHT22;1458;49.728;9.228;2023-05-09T09:20:35;20.70;92.40
2897;DHT22;1458;49.728;9.228;2023-05-09T09:23:08;20.50;92.60
2897;DHT22;1458;49.728;9.228;2023-05-09T09:25:36;20.60;91.40
2897;DHT22;1458;49.728;9.228;2023-05-09T09:28:04;20.60;91.50
2897;DHT22;1458;49.728;9.228;2023-05-09T09:30:32;20.70;92.20
2897;DHT22;1458;49.728;9.228;2023-05-09T09:32:59;20.70;91.10
2897;DHT22;1458;49.728;9.228;2023-05-09T09:35:37;20.80;90.40
2897;DHT22;1458;49.728;9.228;2023-05-09T09:38:05;21.10;90.40
2897;DHT22;1458;49.728;9.228;2023-05-09T09:40:33;21.30;90.10
2897;DHT22;1458;49.728;9.228;2023-05-09T09:43:05;21.50;90.60
2897;DHT22;1458;49.728;9.228;2023-05-09T09:45:33;21.40;87.80
2897;DHT22;1458;49.728;9.228;2023-05-09T09:48:05;21.40;89.00
2897;DHT22;1458;49.728;9.228;2023-05-09T09:50:34;21.30;89.00
2897;DHT22;1458;49.728;9.228;2023-05-09T09:53:01;21.30;87.20
2897;DHT22;1458;49.728;9.228;2023-05-09T09:55:30;21.40;89.10
2897;DHT22;1458;49.728;9.228;2023-05-09T09:57:58;21.40;88.30
2897;DHT22;1458;49.728;9.228;2023-05-09T10:00:27;21.50;85.10
2897;DHT22;1458;49.728;9.228;2023-05-09T10:02:58;21.60;86.40
2897;DHT22;1458;49.728;9.228;2023-05-09T10:05:27;21.60;87.10
2897;DHT22;1458;49.728;9.228;2023-05-09T10:07:58;21.80;85.40
2897;DHT22;1458;49.728;9.228;2023-05-09T10:10:28;21.90;86.10
2897;DHT22;1458;49.728;9.228;2023-05-09T10:12:57;22.00;85.20
2897;DHT22;1458;49.728;9.228;2023-05-09T10:15:27;22.00;81.30
2897;DHT22;1458;49.728;9.228;2023-05-09T10:17:57;21.60;83.00
2897;DHT22;1458;49.728;9.228;2023-05-09T10:20:27;21.90;84.30
2897;DHT22;1458;49.728;9.228;2023-05-09T10:22:58;21.80;83.30
2897;DHT22;1458;49.728;9.228;2023-05-09T10:25:35;21.90;85.60
2897;DHT22;1458;49.728;9.228;2023-05-09T10:28:09;22.10;85.70
2897;DHT22;1458;49.728;9.228;2023-05-09T10:30:47;22.30;87.00
2897;DHT22;1458;49.728;9.228;2023-05-09T10:33:25;22.30;83.80
2897;DHT22;1458;49.728;9.228;2023-05-09T10:35:57;22.30;81.90
2897;DHT22;1458;49.728;9.228;2023-05-09T10:38:29;22.20;85.50
2897;DHT22;1458;49.728;9.228;2023-05-09T10:40:57;21.90;80.90
2897;DHT22;1458;49.728;9.228;2023-05-09T10:43:25;22.00;82.60
2897;DHT22;1458;49.728;9.228;2023-05-09T10:45:53;21.80;81.50
2897;DHT22;1458;49.728;9.228;2023-05-09T10:48:21;22.10;84.20
2897;DHT22;1458;49.728;9.228;2023-05-09T10:50:49;22.50;86.00
2897;DHT22;1458;49.728;9.228;2023-05-09T10:53:18;22.70;78.30
2897;DHT22;1458;49.728;9.228;2023-05-09T10:55:52;22.60;79.60
2897;DHT22;1458;49.728;9.228;2023-05-09T10:58:24;22.60;78.10
2897;DHT22;1458;49.728;9.228;2023-05-09T11:00:54;22.90;78.30
2897;DHT22;1458;49.728;9.228;2023-05-09T11:03:22;22.80;74.60
2897;DHT22;1458;49.728;9.228;2023-05-09T11:05:52;22.60;67.40
2897;DHT22;1458;49.728;9.228;2023-05-09T11:08:22;22.30;68.10
2897;DHT22;1458;49.728;9.228;2023-05-09T11:10:52;22.30;66.10
2897;DHT22;1458;49.728;9.228;2023-05-09T11:13:22;21.90;67.20
2897;DHT22;1458;49.728;9.228;2023-05-09T11:16:10;22.00;64.80
2897;DHT22;1458;49.728;9.228;2023-05-09T11:18:51;22.10;61.60
2897;DHT22;1458;49.728;9.228;2023-05-09T11:21:20;21.90;65.00
2897;DHT22;1458;49.728;9.228;2023-05-09T11:23:48;22.00;65.30
2897;DHT22;1458;49.728;9.228;2023-05-09T11:26:20;22.10;61.10
2897;DHT22;1458;49.728;9.228;2023-05-09T11:28:53;22.00;65.40
2897;DHT22;1458;49.728;9.228;2023-05-09T11:31:21;22.20;65.50
2897;DHT22;1458;49.728;9.228;2023-05-09T11:33:49;22.70;66.40
2897;DHT22;1458;49.728;9.228;2023-05-09T11:36:32;23.00;65.70
2897;DHT22;1458;49.728;9.228;2023-05-09T11:39:04;23.20;65.20
2897;DHT22;1458;49.728;9.228;2023-05-09T11:41:41;23.40;62.70
2897;DHT22;1458;49.728;9.228;2023-05-09T11:44:14;23.40;66.60
2897;DHT22;1458;49.728;9.228;2023-05-09T11:46:42;23.20;57.70
2897;DHT22;1458;49.728;9.228;2023-05-09T11:49:10;23.20;59.20
2897;DHT22;1458;49.728;9.228;2023-05-09T11:51:38;23.00;58.70
2897;DHT22;1458;49.728;9.228;2023-05-09T11:54:08;23.10;62.20
2897;DHT22;1458;49.728;9.228;2023-05-09T11:56:40;23.20;59.10
2897;DHT22;1458;49.728;9.228;2023-05-09T11:59:08;23.00;55.30
2897;DHT22;1458;49.728;9.228;2023-05-09T12:01:37;23.00;57.30
2897;DHT22;1458;49.728;9.228;2023-05-09T12:04:05;22.80;54.20
2897;DHT22;1458;49.728;9.228;2023-05-09T12:06:33;22.40;54.80
2897;DHT22;1458;49.728;9.228;2023-05-09T12:09:02;22.60;61.10
2897;DHT22;1458;49.728;9.228;2023-05-09T12:11:30;22.70;58.70
2897;DHT22;1458;49.728;9.228;2023-05-09T12:14:01;22.70;58.70
2897;DHT22;1458;49.728;9.228;2023-05-09T12:16:28;22.70;55.50
2897;DHT22;1458;49.728;9.228;2023-05-09T12:18:56;22.60;58.20
2897;DHT22;1458;49.728;9.228;2023-05-09T12:21:23;22.50;55.30
2897;DHT22;1458;49.728;9.228;2023-05-09T12:23:55;22.70;56.50
2897;DHT22;1458;49.728;9.228;2023-05-09T12:26:22;23.00;61.50
2897;DHT22;1458;49.728;9.228;2023-05-09T12:28:51;23.10;60.80
2897;DHT22;1458;49.728;9.228;2023-05-09T12:31:19;23.20;59.00
2897;DHT22;1458;49.728;9.228;2023-05-09T12:33:49;23.20;59.80
2897;DHT22;1458;49.728;9.228;2023-05-09T12:36:16;23.00;59.10
2897;DHT22;1458;49.728;9.228;2023-05-09T12:38:52;23.10;54.10
2897;DHT22;1458;49.728;9.228;2023-05-09T12:41:21;23.10;58.80
2897;DHT22;1458;49.728;9.228;2023-05-09T12:43:49;23.20;54.80
2897;DHT22;1458;49.728;9.228;2023-05-09T12:46:19;23.00;53.10
2897;DHT22;1458;49.728;9.228;2023-05-09T12:48:48;22.90;51.40
2897;DHT22;1458;49.728;9.228;2023-05-09T12:51:18;22.80;51.30
2897;DHT22;1458;49.728;9.228;2023-05-09T12:53:46;22.90;52.00
2897;DHT22;1458;49.728;9.228;2023-05-09T12:56:15;23.00;55.90
2897;DHT22;1458;49.728;9.228;2023-05-09T12:58:50;22.90;51.90
2897;DHT22;1458;49.728;9.228;2023-05-09T13:01:22;22.70;48.40
2897;DHT22;1458;49.728;9.228;2023-05-09T13:04:00;22.80;48.60
2897;DHT22;1458;49.728;9.228;2023-05-09T13:06:28;22.90;57.00
2897;DHT22;1458;49.728;9.228;2023-05-09T13:08:56;23.00;51.70
2897;DHT22;1458;49.728;9.228;2023-05-09T13:11:26;22.90;49.50
2897;DHT22;1458;49.728;9.228;2023-05-09T13:13:53;22.90;49.50
2897;DHT22;1458;49.728;9.228;2023-05-09T13:16:22;22.90;50.60
2897;DHT22;1458;49.728;9.228;2023-05-09T13:18:50;22.70;46.70
2897;DHT22;1458;49.728;9.228;2023-05-09T13:21:17;22.50;47.60
2897;DHT22;1458;49.728;9.228;2023-05-09T13:23:45;22.40;48.00
2897;DHT22;1458;49.728;9.228;2023-05-09T13:26:15;22.50;53.70
2897;DHT22;1458;49.728;9.228;2023-05-09T13:28:43;22.50;46.40
2897;DHT22;1458;49.728;9.228;2023-05-09T13:31:10;22.40;48.00
2897;DHT22;1458;49.728;9.228;2023-05-09T13:33:39;22.50;46.70
2897;DHT22;1458;49.728;9.228;2023-05-09T13:36:07;22.60;53.00
2897;DHT22;1458;49.728;9.228;2023-05-09T13:38:35;22.70;48.50
2897;DHT22;1458;49.728;9.228;2023-05-09T13:41:05;22.60;45.70
2897;DHT22;1458;49.728;9.228;2023-05-09T13:43:33;22.40;51.70
2897;DHT22;1458;49.728;9.228;2023-05-09T13:46:01;22.40;50.60
2897;DHT22;1458;49.728;9.228;2023-05-09T13:48:29;22.40;48.00
2897;DHT22;1458;49.728;9.228;2023-05-09T13:50:58;22.50;47.20
2897;DHT22;1458;49.728;9.228;2023-05-09T13:53:25;22.70;51.00
2897;DHT22;1458;49.728;9.228;2023-05-09T13:55:53;22.60;47.70
2897;DHT22;1458;49.728;9.228;2023-05-09T13:58:20;22.70;48.40
2897;DHT22;1458;49.728;9.228;2023-05-09T14:00:48;22.70;48.80
2897;DHT22;1458;49.728;9.228;2023-05-09T14:03:16;22.80;49.90
2897;DHT22;1458;49.728;9.228;2023-05-09T14:05:43;22.90;50.50
2897;DHT22;1458;49.728;9.228;2023-05-09T14:08:14;22.90;48.40
2897;DHT22;1458;49.728;9.228;2023-05-09T14:10:42;23.00;52.20
2897;DHT22;1458;49.728;9.228;2023-05-09T14:13:10;22.90;50.10
2897;DHT22;1458;49.728;9.228;2023-05-09T14:15:40;23.00;48.70
2897;DHT22;1458;49.728;9.228;2023-05-09T14:18:07;22.90;49.90
2897;DHT22;1458;49.728;9.228;2023-05-09T14:20:35;22.80;51.20
2897;DHT22;1458;49.728;9.228;2023-05-09T14:23:05;22.80;48.50
2897;DHT22;1458;49.728;9.228;2023-05-09T14:25:33;22.80;50.90
2897;DHT22;1458;49.728;9.228;2023-05-09T14:28:01;22.70;50.00
2897;DHT22;1458;49.728;9.228;2023-05-09T14:30:29;22.60;49.30
2897;DHT22;1458;49.728;9.228;2023-05-09T14:32:57;22.60;46.60
2897;DHT22;1458;49.728;9.228;2023-05-09T14:35:24;22.40;45.40
2897;DHT22;1458;49.728;9.228;2023-05-09T14:37:52;22.40;46.80
2897;DHT22;1458;49.728;9.228;2023-05-09T14:40:20;22.40;52.00
2897;DHT22;1458;49.728;9.228;2023-05-09T14:42:49;22.60;53.80
2897;DHT22;1458;49.728;9.228;2023-05-09T14:45:16;22.70;52.20
2897;DHT22;1458;49.728;9.228;2023-05-09T14:47:44;22.90;53.10
2897;DHT22;1458;49.728;9.228;2023-05-09T14:50:12;23.10;49.60
2897;DHT22;1458;49.728;9.228;2023-05-09T14:52:41;23.20;52.00
2897;DHT22;1458;49.728;9.228;2023-05-09T14:55:09;23.20;45.00
2897;DHT22;1458;49.728;9.228;2023-05-09T14:57:36;23.20;50.30
2897;DHT22;1458;49.728;9.228;2023-05-09T15:00:07;23.50;49.40
2897;DHT22;1458;49.728;9.228;2023-05-09T15:02:35;23.80;50.50
2897;DHT22;1458;49.728;9.228;2023-05-09T15:05:03;24.10;48.90
2897;DHT22;1458;49.728;9.228;2023-05-09T15:07:31;24.20;44.50
2897;DHT22;1458;49.728;9.228;2023-05-09T15:10:00;24.00;47.10
2897;DHT22;1458;49.728;9.228;2023-05-09T15:12:28;24.10;47.80
2897;DHT22;1458;49.728;9.228;2023-05-09T15:14:57;23.90;46.10
2897;DHT22;1458;49.728;9.228;2023-05-09T15:17:39;23.60;41.80
2897;DHT22;1458;49.728;9.228;2023-05-09T15:20:08;23.30;40.80
2897;DHT22;1458;49.728;9.228;2023-05-09T15:22:36;23.10;44.50
2897;DHT22;1458;49.728;9.228;2023-05-09T15:25:05;23.00;49.60
2897;DHT22;1458;49.728;9.228;2023-05-09T15:27:33;22.70;48.30
2897;DHT22;1458;49.728;9.228;2023-05-09T15:30:01;22.70;45.90
2897;DHT22;1458;49.728;9.228;2023-05-09T15:32:30;22.60;48.30
2897;DHT22;1458;49.728;9.228;2023-05-09T15:34:57;22.60;48.30
2897;DHT22;1458;49.728;9.228;2023-05-09T15:37:25;22.50;46.50
2897;DHT22;1458;49.728;9.228;2023-05-09T15:39:52;22.60;45.40
2897;DHT22;1458;49.728;9.228;2023-05-09T15:42:20;22.60;44.70
2897;DHT22;1458;49.728;9.228;2023-05-09T15:47:21;22.60;44.80
2897;DHT22;1458;49.728;9.228;2023-05-09T15:49:50;22.50;44.50
2897;DHT22;1458;49.728;9.228;2023-05-09T15:52:18;22.40;46.30
2897;DHT22;1458;49.728;9.228;2023-05-09T15:54:46;22.40;45.50
2897;DHT22;1458;49.728;9.228;2023-05-09T15:57:13;22.30;44.50
2897;DHT22;1458;49.728;9.228;2023-05-09T15:59:42;22.30;45.60
2897;DHT22;1458;49.728;9.228;2023-05-09T16:02:09;22.20;47.70
2897;DHT22;1458;49.728;9.228;2023-05-09T16:04:37;22.10;47.60
2897;DHT22;1458;49.728;9.228;2023-05-09T16:07:06;22.00;45.20
2897;DHT22;1458;49.728;9.228;2023-05-09T16:09:33;22.00;47.50
2897;DHT22;1458;49.728;9.228;2023-05-09T16:12:02;22.00;45.30
2897;DHT22;1458;49.728;9.228;2023-05-09T16:14:30;21.90;47.40
2897;DHT22;1458;49.728;9.228;2023-05-09T16:16:57;21.90;47.40